Latest Coastal Weather Observations for Maningrida Airport

IDD60701

Issued at 1:55 pm CST Tuesday 23 September 2014 (issued every 10 minutes, with the page automatically refreshed every 10 minutes)

About coastal observations | Map of coastal stations | Coastal observations for NT | Marine services | Other Formats
Station Details ID: 014405 Name: MANINGRIDA AIRPORT Lat: -12.06 Lon: 134.23 Height: 28.1 m
Data from the previous 72 hours. | See also: Recent months at Maningrida Airport
Date/Time
CST
Temp

°C
Wind Pressure Rain
since 9am
mm
Weather Cloud Vis
km
Sea
Height
m
Swell
Dir
 
Speed
knots
Gust
knots
hPa Trend Height
m
Period
s
Dir
23/01:30pm 30.1 N 13 17 1012.1 - 0.0 - - 10 - - - -
23/01:00pm 30.0 N 14 17 1012.4 - 0.0 - - 10 - - - -
23/12:30pm 29.8 N 11 15 1012.8 - 0.0 - - 10 - - - -
23/12:00pm 30.7 N 10 14 1013.3 - 0.0 - - 10 - - - -
23/11:30am 29.8 NNE 8 10 1013.7 - 0.0 - - 10 - - - -
23/11:00am 29.6 N 9 11 1014.3 - 0.0 - - 10 - - - -
23/10:30am 29.0 NNW 6 8 1014.7 - 0.0 - - 10 - - - -
23/10:00am 28.2 NNW 5 7 1015.1 - 0.0 - Partly cloudy 10 - - - -
23/09:30am 27.7 NW 4 7 1015.0 - 0.0 - Partly cloudy 10 - - - -
23/09:00am 26.8 NNW 3 5 1014.9 - 0.0 - - 10 - - - -
23/08:30am 26.0 S 3 4 1014.7 - 0.0 - - 10 - - - -
23/08:00am 25.0 SE 4 5 1014.6 - 0.0 - - 10 - - - -
23/07:30am 23.7 E 3 4 1014.4 - 0.0 - - 10 - - - -
23/07:00am 23.0 SSW 2 4 1014.1 - 0.0 - - 10 - - - -
23/06:30am 22.7 SSW 3 4 1013.6 - 0.0 - Partly cloudy 10 - - - -
23/06:00am 23.0 SSW 4 5 1013.2 - 0.0 - Mostly clear 10 - - - -
23/05:30am 23.0 S 4 5 1013.1 - 0.0 - Partly cloudy 8 - - - -
23/05:00am 23.1 SSW 4 5 1012.8 - 0.0 - Partly cloudy 7 - - - -
23/04:30am 23.3 SSW 5 7 1012.8 - 0.0 - Partly cloudy 7 - - - -
23/04:00am 23.5 S 3 5 1012.5 - 0.0 - Partly cloudy 8 - - - -
23/03:30am 23.6 SSW 5 6 1012.3 - 0.0 - Partly cloudy 8 - - - -
23/03:00am 23.6 SW 3 4 1012.1 - 0.0 - Cloudy 8 - - - -
23/02:30am 23.8 S 3 4 1012.3 - 0.0 - Partly cloudy 10 - - - -
23/02:00am 23.8 CALM 0 0 1012.3 - 0.0 - Partly cloudy 9 - - - -
23/01:30am 23.7 ESE 1 4 1012.4 - 0.0 - Partly cloudy 10 - - - -
23/01:00am 23.4 CALM 0 0 1012.7 - 0.0 - Partly cloudy 10 - - - -
23/12:30am 22.8 CALM 0 0 1012.8 - 0.0 - Partly cloudy 10 - - - -
23/12:10am 23.6 ENE 3 5 1012.9 - 0.0 - - 10 - - - -
23/12:00am 22.6 E 1 3 1012.9 - 0.0 - - 5 - - - -
 
Date/Time
CST
Temp

°C
Wind Pressure Rain
since 9am
mm
Weather Cloud Vis
km
Sea
Height
m
Swell
Dir
 
Speed
knots
Gust
knots
hPa Trend Height
m
Period
s
Dir
22/11:54pm 22.6 E 1 3 1013.0 - 0.0 - Partly cloudy 5 - - - -
22/11:30pm 23.0 CALM 0 0 1013.0 - 0.0 - - 10 - - - -
22/11:00pm 23.5 CALM 0 1 1013.0 - 0.0 - - 10 - - - -
22/10:30pm 24.6 ENE 3 5 1013.0 - 0.0 - - 10 - - - -
22/10:00pm 24.8 ENE 4 6 1012.9 - 0.0 - - 10 - - - -
22/09:30pm 25.1 NE 4 7 1012.8 - 0.0 - - 10 - - - -
22/09:00pm 25.2 NNE 6 9 1012.4 - 0.0 - - 10 - - - -
22/08:30pm 25.3 NE 7 8 1012.0 - 0.0 - - 10 - - - -
22/08:00pm 25.5 NNE 6 9 1011.9 - 0.0 - - 10 - - - -
22/07:30pm 25.6 NE 5 8 1011.6 - 0.0 - - 10 - - - -
22/07:00pm 25.9 NNE 6 8 1011.2 - 0.0 - - 10 - - - -
22/06:30pm 26.3 NNE 7 10 1010.9 - 0.0 - - 10 - - - -
22/06:00pm 26.8 NNE 7 10 1010.7 - 0.0 - - 10 - - - -
22/05:30pm 27.2 N 9 12 1010.5 - 0.0 - - 10 - - - -
22/05:00pm 27.6 N 10 13 1010.1 - 0.0 - - 10 - - - -
22/04:30pm 28.8 N 10 14 1010.1 - 0.0 - - 10 - - - -
22/04:00pm 29.0 N 11 15 1010.1 - 0.0 - - 10 - - - -
22/03:30pm 29.0 N 11 16 1010.4 - 0.0 - - 10 - - - -
22/03:00pm 29.5 N 12 17 1010.5 - 0.0 - - 10 - - - -
22/02:30pm 30.0 N 12 16 1010.8 - 0.0 - - 10 - - - -
22/02:00pm 29.7 N 13 16 1011.1 - 0.0 - - 10 - - - -
22/01:30pm 29.9 N 14 18 1011.5 - 0.0 - - 10 - - - -
22/01:00pm 30.1 NW 9 13 1012.0 - 0.0 - - 10 - - - -
22/12:30pm 29.2 NW 10 14 1012.9 - 0.0 - - 10 - - - -
22/12:00pm 29.2 NNW 7 11 1013.8 - 0.0 - - 10 - - - -
22/11:30am 29.6 SSE 6 11 1014.5 - 0.0 - Partly cloudy 10 - - - -
22/11:00am 29.1 ESE 4 9 1015.1 - 0.0 - Partly cloudy 10 - - - -
22/10:30am 28.2 E 7 13 1015.5 - 0.0 - Partly cloudy 10 - - - -
22/10:00am 26.7 SE 6 10 1015.9 - 0.0 - Partly cloudy 10 - - - -
22/09:30am 27.0 SE 5 9 1016.2 - 0.0 - Partly cloudy 10 - - - -
22/09:00am 26.2 SSE 7 9 1016.1 - 0.0 - Mostly clear 10 - - - -
22/08:30am 25.1 SSE 7 10 1016.1 - 0.0 - - 10 - - - -
22/08:00am 23.8 SSE 7 10 1015.7 - 0.0 - Partly cloudy 10 - - - -
22/07:30am 22.9 SSE 6 8 1015.2 - 0.0 - - 10 - - - -
22/07:00am 21.6 SSE 5 8 1014.4 - 0.0 - - 10 - - - -
22/06:30am 21.4 SSE 6 8 1013.9 - 0.0 - - 10 - - - -
22/06:00am 21.7 SSE 7 8 1013.7 - 0.0 - Mostly clear 10 - - - -
22/05:30am 22.1 SE 7 8 1013.1 - 0.0 - Partly cloudy 10 - - - -
22/05:00am 22.1 SSE 6 8 1012.9 - 0.0 - Partly cloudy 10 - - - -
22/04:30am 22.2 ESE 6 8 1012.5 - 0.0 - - 10 - - - -
22/04:00am 21.6 SSE 4 6 1012.3 - 0.0 - Partly cloudy 10 - - - -
22/03:30am 21.8 SSW 4 5 1012.3 - 0.0 - Partly cloudy 10 - - - -
22/03:00am 21.2 CALM 0 0 1012.4 - 0.0 - Mostly clear 10 - - - -
22/02:30am 21.0 CALM 0 1 1012.4 - 0.0 - Partly cloudy 10 - - - -
22/02:00am 21.4 CALM 0 0 1012.7 - 0.0 - - 10 - - - -
22/01:30am 21.7 CALM 0 0 1013.1 - 0.0 - - 10 - - - -
22/01:00am 22.3 CALM 0 0 1013.5 - 0.0 - - 10 - - - -
22/12:30am 23.7 NE 3 4 1013.6 - 0.0 - - 10 - - - -
22/12:00am 24.0 ENE 4 5 1014.0 - 0.0 - - 10 - - - -
 
Date/Time
CST
Temp

°C
Wind Pressure Rain
since 9am
mm
Weather Cloud Vis
km
Sea
Height
m
Swell
Dir
 
Speed
knots
Gust
knots
hPa Trend Height
m
Period
s
Dir
21/11:30pm 24.2 ENE 3 4 1014.3 - 0.0 - - 10 - - - -
21/11:00pm 24.4 ENE 4 7 1014.4 - 0.0 - - 10 - - - -
21/10:30pm 24.5 ENE 3 4 1014.3 - 0.0 - - 10 - - - -
21/10:00pm 24.9 ENE 3 6 1014.4 - 0.0 - - 10 - - - -
21/09:30pm 25.0 ENE 3 4 1014.2 - 0.0 - - 10 - - - -
21/09:00pm 25.2 NE 2 5 1013.8 - 0.0 - - 10 - - - -
21/08:30pm 25.5 NE 5 7 1013.5 - 0.0 - - 10 - - - -
21/08:00pm 25.6 NNE 6 9 1013.2 - 0.0 - - 10 - - - -
21/07:30pm 25.7 NNE 7 10 1012.9 - 0.0 - - 10 - - - -
21/07:00pm 25.9 NNE 8 12 1012.6 - 0.0 - - 10 - - - -
21/06:30pm 26.4 NNE 9 12 1012.0 - 0.0 - - 10 - - - -
21/06:00pm 26.8 N 10 13 1011.7 - 0.0 - - 10 - - - -
21/05:30pm 27.6 NNE 9 13 1011.4 - 0.0 - - 10 - - - -
21/05:00pm 28.8 NNE 9 12 1011.3 - 0.0 - - 10 - - - -
21/04:30pm 29.4 NNE 10 14 1011.2 - 0.0 - - 10 - - - -
21/04:00pm 29.6 NNE 11 15 1011.1 - 0.0 - - 10 - - - -
21/03:30pm 29.9 N 12 15 1011.2 - 0.0 - - 10 - - - -
21/03:00pm 30.3 N 11 16 1011.1 - 0.0 - - 10 - - - -
21/02:30pm 30.4 N 12 16 1011.3 - 0.0 - - 10 - - - -
21/02:00pm 29.8 N 11 16 1011.8 - 0.0 - - 10 - - - -
21/01:30pm 30.0 N 12 16 1012.1 - 0.0 - - 10 - - - -
21/01:00pm 30.7 N 12 15 1012.8 - 0.0 - - 10 - - - -
21/12:30pm 31.7 NNE 8 11 1013.1 - 0.0 - - 10 - - - -
21/12:00pm 30.5 ENE 7 11 1013.5 - 0.0 - - 10 - - - -
21/11:30am 30.7 NNE 7 9 1014.2 - 0.0 - - 10 - - - -
21/11:00am 29.6 NNE 6 10 1014.9 - 0.0 - - 10 - - - -
21/10:30am 29.5 NNE 6 10 1015.2 - 0.0 - - 10 - - - -
21/10:00am 29.7 E 7 9 1015.2 - 0.0 - - 10 - - - -
21/09:30am 28.4 NE 6 10 1015.1 - 0.0 - - 10 - - - -
21/09:00am 26.8 NE 5 7 1014.9 - 0.0 - - 10 - - - -
21/08:30am 26.0 E 3 6 1014.6 - 0.0 - - 10 - - - -
21/08:00am 23.6 SE 4 5 1014.2 - 0.0 - - 10 - - - -
21/07:30am 21.2 S 1 3 1013.9 - 0.0 - - 10 - - - -
21/07:00am 18.9 S 3 4 1013.5 - 0.0 - - 10 - - - -
21/06:30am 18.1 CALM 0 0 1013.1 - 0.0 - - 10 - - - -
21/06:20am 18.2 CALM 0 0 1013.0 - 0.0 - - 10 - - - -
21/06:02am 18.3 CALM 0 3 1012.7 - 0.0 - - 5 - - - -
21/06:00am 18.3 S 1 3 1012.6 - 0.0 - - 8 - - - -
21/05:30am 18.6 S 2 3 1012.4 - 0.0 - - 10 - - - -
21/05:00am 18.8 S 3 5 1012.1 - 0.0 - - 10 - - - -
21/04:30am 19.0 CALM 0 3 1011.9 - 0.0 - - 10 - - - -
21/04:00am 19.3 CALM 0 0 1011.9 - 0.0 - - 10 - - - -
21/03:30am 19.5 CALM 0 2 1011.7 - 0.0 - - 10 - - - -
21/03:00am 19.6 S 3 4 1012.0 - 0.0 - - 10 - - - -
21/02:30am 19.9 S 3 4 1012.2 - 0.0 - - 10 - - - -
21/02:00am 20.1 S 3 4 1012.5 - 0.0 - - 10 - - - -
21/01:30am 20.7 S 3 4 1012.6 - 0.0 - - 9 - - - -
21/01:00am 20.7 S 3 5 1013.0 - 0.0 - - 10 - - - -
21/12:30am 21.4 SSW 4 5 1013.4 - 0.0 - - 10 - - - -
21/12:00am 20.9 SSW 3 4 1013.6 - 0.0 - - 10 - - - -
 
Date/Time
CST
Temp

°C
Wind Pressure Rain
since 9am
mm
Weather Cloud Vis
km
Sea
Height
m
Swell
Dir
 
Speed
knots
Gust
knots
hPa Trend Height
m
Period
s
Dir
20/11:46pm 21.1 SW 3 4 1013.7 - 0.0 - - 10 - - - -
20/11:30pm 21.2 SW 3 4 1013.7 - 0.0 - - 3 - - - -
20/11:23pm 21.4 SW 3 3 1013.8 - 0.0 - - 5 - - - -
20/11:00pm 21.6 SW 3 4 1013.7 - 0.0 - - 10 - - - -
20/10:30pm 22.5 ENE 2 4 1013.8 - 0.0 - - 10 - - - -
20/10:00pm 23.0 CALM 0 0 1013.8 - 0.0 - - 10 - - - -
20/09:30pm 24.5 ENE 2 4 1013.6 - 0.0 - - 10 - - - -
20/09:00pm 24.7 NE 3 4 1013.3 - 0.0 - - 10 - - - -
20/08:30pm 25.0 ENE 5 7 1013.1 - 0.0 - - 10 - - - -
20/08:00pm 25.2 ENE 4 6 1012.7 - 0.0 - - 10 - - - -
20/07:30pm 25.4 NE 5 6 1012.3 - 0.0 - - 10 - - - -
20/07:00pm 25.8 NE 6 8 1011.7 - 0.0 - - 10 - - - -
20/06:30pm 26.3 NNE 7 11 1011.5 - 0.0 - - 10 - - - -
20/06:00pm 27.4 NNE 7 11 1011.1 - 0.0 - - 10 - - - -
20/05:30pm 27.7 NNE 9 13 1010.7 - 0.0 - - 10 - - - -
20/05:00pm 28.1 NNE 9 13 1010.5 - 0.0 - - 10 - - - -
20/04:30pm 29.6 NNE 10 15 1010.5 - 0.0 - - 10 - - - -
20/04:00pm 29.2 NE 9 14 1010.5 - 0.0 - - 10 - - - -
20/03:30pm 30.2 NE 10 14 1010.8 - 0.0 - - 10 - - - -
20/03:00pm 30.7 ENE 10 12 1011.1 - 0.0 - - 10 - - - -
20/02:30pm 30.6 NNE 10 15 1011.6 - 0.0 - - 10 - - - -
20/02:00pm 31.0 NE 11 16 1012.1 - 0.0 - - 10 - - - -

Other Formats:

Comma delimited format used in spreadsheet applications
http://www.bom.gov.au/fwo/IDD60701/IDD60701.95142.axf

JavaScript Object Notation format (JSON) in row-major order
http://www.bom.gov.au/fwo/IDD60701/IDD60701.95142.json